sensor_id;sensor_type;location;lat;lon;timestamp;temperature;humidity
69393;SHT31;56582;44.624;20.378;2024-01-06T00:01:16;11.44;72.65
69393;SHT31;56582;44.624;20.378;2024-01-06T00:03:42;11.38;72.91
69393;SHT31;56582;44.624;20.378;2024-01-06T00:06:07;11.34;73.23
69393;SHT31;56582;44.624;20.378;2024-01-06T00:08:33;11.50;72.33
69393;SHT31;56582;44.624;20.378;2024-01-06T00:10:58;11.38;72.29
69393;SHT31;56582;44.624;20.378;2024-01-06T00:13:28;11.44;71.54
69393;SHT31;56582;44.624;20.378;2024-01-06T00:15:53;11.46;71.40
69393;SHT31;56582;44.624;20.378;2024-01-06T00:18:19;11.41;71.05
69393;SHT31;56582;44.624;20.378;2024-01-06T00:20:44;11.46;70.92
69393;SHT31;56582;44.624;20.378;2024-01-06T00:23:10;11.48;71.05
69393;SHT31;56582;44.624;20.378;2024-01-06T00:25:35;11.42;70.66
69393;SHT31;56582;44.624;20.378;2024-01-06T00:28:01;11.51;70.34
69393;SHT31;56582;44.624;20.378;2024-01-06T00:30:26;11.52;69.99
69393;SHT31;56582;44.624;20.378;2024-01-06T00:32:52;11.48;70.23
69393;SHT31;56582;44.624;20.378;2024-01-06T00:35:18;11.44;69.65
69393;SHT31;56582;44.624;20.378;2024-01-06T00:37:43;11.39;70.12
69393;SHT31;56582;44.624;20.378;2024-01-06T00:40:09;11.44;69.60
69393;SHT31;56582;44.624;20.378;2024-01-06T00:42:35;11.46;69.31
69393;SHT31;56582;44.624;20.378;2024-01-06T00:45:00;11.37;70.37
69393;SHT31;56582;44.624;20.378;2024-01-06T00:47:26;11.39;69.67
69393;SHT31;56582;44.624;20.378;2024-01-06T00:49:51;11.37;69.72
69393;SHT31;56582;44.624;20.378;2024-01-06T00:52:17;11.34;69.94
69393;SHT31;56582;44.624;20.378;2024-01-06T00:54:42;11.37;69.16
69393;SHT31;56582;44.624;20.378;2024-01-06T00:57:08;11.30;69.61
69393;SHT31;56582;44.624;20.378;2024-01-06T00:59:33;11.38;69.25
69393;SHT31;56582;44.624;20.378;2024-01-06T01:01:59;11.34;68.95
69393;SHT31;56582;44.624;20.378;2024-01-06T01:04:24;11.32;69.47
69393;SHT31;56582;44.624;20.378;2024-01-06T01:06:50;11.32;69.14
69393;SHT31;56582;44.624;20.378;2024-01-06T01:09:15;11.35;69.40
69393;SHT31;56582;44.624;20.378;2024-01-06T01:11:41;11.25;70.14
69393;SHT31;56582;44.624;20.378;2024-01-06T01:14:07;11.34;69.64
69393;SHT31;56582;44.624;20.378;2024-01-06T01:16:32;11.24;69.61
69393;SHT31;56582;44.624;20.378;2024-01-06T01:18:58;11.25;69.54
69393;SHT31;56582;44.624;20.378;2024-01-06T01:21:24;11.31;68.85
69393;SHT31;56582;44.624;20.378;2024-01-06T01:23:49;11.30;69.05
69393;SHT31;56582;44.624;20.378;2024-01-06T01:26:15;11.34;68.84
69393;SHT31;56582;44.624;20.378;2024-01-06T01:28:40;11.30;69.44
69393;SHT31;56582;44.624;20.378;2024-01-06T01:31:06;11.23;69.32
69393;SHT31;56582;44.624;20.378;2024-01-06T01:33:32;11.39;68.80
69393;SHT31;56582;44.624;20.378;2024-01-06T01:35:57;11.42;68.60
69393;SHT31;56582;44.624;20.378;2024-01-06T01:38:23;11.51;68.67
69393;SHT31;56582;44.624;20.378;2024-01-06T01:40:48;11.44;68.42
69393;SHT31;56582;44.624;20.378;2024-01-06T01:43:20;11.44;68.61
69393;SHT31;56582;44.624;20.378;2024-01-06T01:45:53;11.44;68.38
69393;SHT31;56582;44.624;20.378;2024-01-06T01:48:23;11.37;68.58
69393;SHT31;56582;44.624;20.378;2024-01-06T01:50:49;11.45;68.04
69393;SHT31;56582;44.624;20.378;2024-01-06T01:53:15;11.51;67.88
69393;SHT31;56582;44.624;20.378;2024-01-06T01:55:42;11.46;67.90
69393;SHT31;56582;44.624;20.378;2024-01-06T01:58:08;11.50;67.76
69393;SHT31;56582;44.624;20.378;2024-01-06T02:00:34;11.35;68.37
69393;SHT31;56582;44.624;20.378;2024-01-06T02:03:00;11.44;68.03
69393;SHT31;56582;44.624;20.378;2024-01-06T02:05:28;11.41;67.57
69393;SHT31;56582;44.624;20.378;2024-01-06T02:07:53;11.39;68.19
69393;SHT31;56582;44.624;20.378;2024-01-06T02:10:19;11.39;67.88
69393;SHT31;56582;44.624;20.378;2024-01-06T02:12:45;11.42;67.59
69393;SHT31;56582;44.624;20.378;2024-01-06T02:15:10;11.59;66.97
69393;SHT31;56582;44.624;20.378;2024-01-06T02:17:36;11.61;66.30
69393;SHT31;56582;44.624;20.378;2024-01-06T02:20:01;11.55;66.68
69393;SHT31;56582;44.624;20.378;2024-01-06T02:22:27;11.58;66.37
69393;SHT31;56582;44.624;20.378;2024-01-06T02:24:53;11.66;66.31
69393;SHT31;56582;44.624;20.378;2024-01-06T02:27:19;11.75;65.52
69393;SHT31;56582;44.624;20.378;2024-01-06T02:29:44;11.83;65.16
69393;SHT31;56582;44.624;20.378;2024-01-06T02:32:09;11.83;64.90
69393;SHT31;56582;44.624;20.378;2024-01-06T02:34:35;11.83;65.62
69393;SHT31;56582;44.624;20.378;2024-01-06T02:37:03;11.69;66.11
69393;SHT31;56582;44.624;20.378;2024-01-06T02:39:32;11.75;65.36
69393;SHT31;56582;44.624;20.378;2024-01-06T02:41:57;11.78;65.79
69393;SHT31;56582;44.624;20.378;2024-01-06T02:44:23;11.76;65.24
69393;SHT31;56582;44.624;20.378;2024-01-06T02:46:48;11.68;66.13
69393;SHT31;56582;44.624;20.378;2024-01-06T02:49:14;11.62;66.28
69393;SHT31;56582;44.624;20.378;2024-01-06T02:51:39;11.78;65.78
69393;SHT31;56582;44.624;20.378;2024-01-06T02:54:04;11.78;65.80
69393;SHT31;56582;44.624;20.378;2024-01-06T02:56:30;11.82;65.71
69393;SHT31;56582;44.624;20.378;2024-01-06T02:58:55;11.72;65.90
69393;SHT31;56582;44.624;20.378;2024-01-06T03:01:21;11.75;66.26
69393;SHT31;56582;44.624;20.378;2024-01-06T03:03:46;11.74;66.28
69393;SHT31;56582;44.624;20.378;2024-01-06T03:06:12;11.87;66.11
69393;SHT31;56582;44.624;20.378;2024-01-06T03:08:37;11.85;66.28
69393;SHT31;56582;44.624;20.378;2024-01-06T03:11:03;11.68;66.61
69393;SHT31;56582;44.624;20.378;2024-01-06T03:13:30;11.69;66.97
69393;SHT31;56582;44.624;20.378;2024-01-06T03:15:56;11.75;66.96
69393;SHT31;56582;44.624;20.378;2024-01-06T03:18:21;11.86;66.04
69393;SHT31;56582;44.624;20.378;2024-01-06T03:20:47;11.78;66.75
69393;SHT31;56582;44.624;20.378;2024-01-06T03:23:12;11.71;67.19
69393;SHT31;56582;44.624;20.378;2024-01-06T03:25:38;11.82;66.89
69393;SHT31;56582;44.624;20.378;2024-01-06T03:28:03;11.87;66.69
69393;SHT31;56582;44.624;20.378;2024-01-06T03:30:29;11.82;66.79
69393;SHT31;56582;44.624;20.378;2024-01-06T03:32:57;11.78;67.23
69393;SHT31;56582;44.624;20.378;2024-01-06T03:35:23;11.66;67.56
69393;SHT31;56582;44.624;20.378;2024-01-06T03:37:48;11.74;67.47
69393;SHT31;56582;44.624;20.378;2024-01-06T03:40:14;11.78;67.14
69393;SHT31;56582;44.624;20.378;2024-01-06T03:42:39;11.64;67.69
69393;SHT31;56582;44.624;20.378;2024-01-06T03:45:05;11.79;67.16
69393;SHT31;56582;44.624;20.378;2024-01-06T03:47:31;11.69;67.66
69393;SHT31;56582;44.624;20.378;2024-01-06T03:49:57;11.48;68.25
69393;SHT31;56582;44.624;20.378;2024-01-06T03:52:22;11.46;68.08
69393;SHT31;56582;44.624;20.378;2024-01-06T03:54:48;11.37;68.45
69393;SHT31;56582;44.624;20.378;2024-01-06T03:57:13;11.34;68.94
69393;SHT31;56582;44.624;20.378;2024-01-06T03:59:39;11.32;68.44
69393;SHT31;56582;44.624;20.378;2024-01-06T04:02:04;11.23;69.12
69393;SHT31;56582;44.624;20.378;2024-01-06T04:04:29;11.24;69.05
69393;SHT31;56582;44.624;20.378;2024-01-06T04:06:55;11.24;69.12
69393;SHT31;56582;44.624;20.378;2024-01-06T04:09:20;11.32;68.93
69393;SHT31;56582;44.624;20.378;2024-01-06T04:11:46;11.24;69.13
69393;SHT31;56582;44.624;20.378;2024-01-06T04:14:11;11.21;69.33
69393;SHT31;56582;44.624;20.378;2024-01-06T04:16:37;11.45;68.39
69393;SHT31;56582;44.624;20.378;2024-01-06T04:19:03;11.45;68.52
69393;SHT31;56582;44.624;20.378;2024-01-06T04:21:28;11.34;68.98
69393;SHT31;56582;44.624;20.378;2024-01-06T04:23:54;11.31;68.75
69393;SHT31;56582;44.624;20.378;2024-01-06T04:26:21;11.30;69.06
69393;SHT31;56582;44.624;20.378;2024-01-06T04:28:46;11.37;68.79
69393;SHT31;56582;44.624;20.378;2024-01-06T04:31:12;11.34;68.99
69393;SHT31;56582;44.624;20.378;2024-01-06T04:33:37;11.25;69.44
69393;SHT31;56582;44.624;20.378;2024-01-06T04:36:03;11.23;69.38
69393;SHT31;56582;44.624;20.378;2024-01-06T04:38:29;11.32;69.46
69393;SHT31;56582;44.624;20.378;2024-01-06T04:40:54;11.44;69.07
69393;SHT31;56582;44.624;20.378;2024-01-06T04:43:20;11.34;69.60
69393;SHT31;56582;44.624;20.378;2024-01-06T04:45:45;11.28;69.59
69393;SHT31;56582;44.624;20.378;2024-01-06T04:48:11;11.28;69.51
69393;SHT31;56582;44.624;20.378;2024-01-06T04:50:37;11.31;69.32
69393;SHT31;56582;44.624;20.378;2024-01-06T04:53:02;11.42;69.12
69393;SHT31;56582;44.624;20.378;2024-01-06T04:55:28;11.50;68.83
69393;SHT31;56582;44.624;20.378;2024-01-06T04:57:53;11.42;69.07
69393;SHT31;56582;44.624;20.378;2024-01-06T05:00:19;11.51;69.01
69393;SHT31;56582;44.624;20.378;2024-01-06T05:02:45;11.50;68.75
69393;SHT31;56582;44.624;20.378;2024-01-06T05:05:10;11.54;69.08
69393;SHT31;56582;44.624;20.378;2024-01-06T05:07:36;11.57;69.05
69393;SHT31;56582;44.624;20.378;2024-01-06T05:10:01;11.62;68.78
69393;SHT31;56582;44.624;20.378;2024-01-06T05:12:27;11.52;69.31
69393;SHT31;56582;44.624;20.378;2024-01-06T05:14:53;11.61;69.90
69393;SHT31;56582;44.624;20.378;2024-01-06T05:17:18;11.69;69.05
69393;SHT31;56582;44.624;20.378;2024-01-06T05:19:44;11.83;68.70
69393;SHT31;56582;44.624;20.378;2024-01-06T05:22:10;11.95;68.79
69393;SHT31;56582;44.624;20.378;2024-01-06T05:24:36;11.76;68.21
69393;SHT31;56582;44.624;20.378;2024-01-06T05:27:01;11.74;68.40
69393;SHT31;56582;44.624;20.378;2024-01-06T05:29:27;11.61;69.04
69393;SHT31;56582;44.624;20.378;2024-01-06T05:31:53;11.42;69.09
69393;SHT31;56582;44.624;20.378;2024-01-06T05:34:19;11.50;69.18
69393;SHT31;56582;44.624;20.378;2024-01-06T05:36:45;11.48;68.66
69393;SHT31;56582;44.624;20.378;2024-01-06T05:39:10;11.51;68.76
69393;SHT31;56582;44.624;20.378;2024-01-06T05:41:39;11.34;69.41
69393;SHT31;56582;44.624;20.378;2024-01-06T05:44:05;11.48;69.00
69393;SHT31;56582;44.624;20.378;2024-01-06T05:46:31;11.44;69.29
69393;SHT31;56582;44.624;20.378;2024-01-06T05:48:56;11.39;69.13
69393;SHT31;56582;44.624;20.378;2024-01-06T05:51:23;11.44;68.73
69393;SHT31;56582;44.624;20.378;2024-01-06T05:53:48;11.35;69.51
69393;SHT31;56582;44.624;20.378;2024-01-06T05:56:26;11.44;68.65
69393;SHT31;56582;44.624;20.378;2024-01-06T05:58:52;11.38;69.48
69393;SHT31;56582;44.624;20.378;2024-01-06T06:01:19;11.42;69.95
69393;SHT31;56582;44.624;20.378;2024-01-06T06:03:46;11.38;69.47
69393;SHT31;56582;44.624;20.378;2024-01-06T06:06:12;11.41;69.19
69393;SHT31;56582;44.624;20.378;2024-01-06T06:08:37;11.45;68.97
69393;SHT31;56582;44.624;20.378;2024-01-06T06:11:03;11.41;68.73
69393;SHT31;56582;44.624;20.378;2024-01-06T06:13:40;11.34;68.90
69393;SHT31;56582;44.624;20.378;2024-01-06T06:16:10;11.37;69.09
69393;SHT31;56582;44.624;20.378;2024-01-06T06:18:42;11.30;69.32
69393;SHT31;56582;44.624;20.378;2024-01-06T06:21:08;11.28;69.08
69393;SHT31;56582;44.624;20.378;2024-01-06T06:23:34;11.16;69.59
69393;SHT31;56582;44.624;20.378;2024-01-06T06:26:05;11.25;68.53
69393;SHT31;56582;44.624;20.378;2024-01-06T06:28:31;11.25;69.08
69393;SHT31;56582;44.624;20.378;2024-01-06T06:30:56;11.25;68.82
69393;SHT31;56582;44.624;20.378;2024-01-06T06:33:22;11.18;70.74
69393;SHT31;56582;44.624;20.378;2024-01-06T06:35:47;11.28;69.16
69393;SHT31;56582;44.624;20.378;2024-01-06T06:38:13;11.34;69.07
69393;SHT31;56582;44.624;20.378;2024-01-06T06:40:40;11.21;69.81
69393;SHT31;56582;44.624;20.378;2024-01-06T06:43:05;11.13;69.96
69393;SHT31;56582;44.624;20.378;2024-01-06T06:45:31;11.00;70.19
69393;SHT31;56582;44.624;20.378;2024-01-06T06:47:56;11.08;70.50
69393;SHT31;56582;44.624;20.378;2024-01-06T06:50:22;11.01;70.58
69393;SHT31;56582;44.624;20.378;2024-01-06T06:52:47;11.17;69.91
69393;SHT31;56582;44.624;20.378;2024-01-06T06:55:13;11.24;69.38
69393;SHT31;56582;44.624;20.378;2024-01-06T06:57:40;11.13;70.09
69393;SHT31;56582;44.624;20.378;2024-01-06T07:00:08;11.23;69.32
69393;SHT31;56582;44.624;20.378;2024-01-06T07:02:34;11.21;69.63
69393;SHT31;56582;44.624;20.378;2024-01-06T07:04:59;11.21;70.21
69393;SHT31;56582;44.624;20.378;2024-01-06T07:07:25;11.32;69.47
69393;SHT31;56582;44.624;20.378;2024-01-06T07:09:50;11.28;69.42
69393;SHT31;56582;44.624;20.378;2024-01-06T07:12:16;11.20;69.68
69393;SHT31;56582;44.624;20.378;2024-01-06T07:14:41;11.31;69.34
69393;SHT31;56582;44.624;20.378;2024-01-06T07:17:07;11.31;69.23
69393;SHT31;56582;44.624;20.378;2024-01-06T07:19:34;11.32;69.91
69393;SHT31;56582;44.624;20.378;2024-01-06T07:21:59;11.27;69.13
69393;SHT31;56582;44.624;20.378;2024-01-06T07:24:25;11.46;69.42
69393;SHT31;56582;44.624;20.378;2024-01-06T07:26:52;11.58;70.13
69393;SHT31;56582;44.624;20.378;2024-01-06T07:29:18;11.61;69.58
69393;SHT31;56582;44.624;20.378;2024-01-06T07:31:44;11.58;69.61
69393;SHT31;56582;44.624;20.378;2024-01-06T07:34:09;11.58;69.17
69393;SHT31;56582;44.624;20.378;2024-01-06T07:36:35;11.68;70.71
69393;SHT31;56582;44.624;20.378;2024-01-06T07:39:01;11.65;68.82
69393;SHT31;56582;44.624;20.378;2024-01-06T07:41:26;11.57;68.84
69393;SHT31;56582;44.624;20.378;2024-01-06T07:43:51;11.68;70.70
69393;SHT31;56582;44.624;20.378;2024-01-06T07:46:17;11.62;69.39
69393;SHT31;56582;44.624;20.378;2024-01-06T07:48:42;11.58;68.60
69393;SHT31;56582;44.624;20.378;2024-01-06T07:51:08;11.69;68.02
69393;SHT31;56582;44.624;20.378;2024-01-06T07:53:34;11.74;68.32
69393;SHT31;56582;44.624;20.378;2024-01-06T07:55:59;11.59;68.98
69393;SHT31;56582;44.624;20.378;2024-01-06T07:58:25;11.68;69.13
69393;SHT31;56582;44.624;20.378;2024-01-06T08:00:51;11.69;68.87
69393;SHT31;56582;44.624;20.378;2024-01-06T08:03:20;11.71;68.98
69393;SHT31;56582;44.624;20.378;2024-01-06T08:05:46;11.81;69.28
69393;SHT31;56582;44.624;20.378;2024-01-06T08:08:11;11.79;68.59
69393;SHT31;56582;44.624;20.378;2024-01-06T08:10:38;11.83;68.81
69393;SHT31;56582;44.624;20.378;2024-01-06T08:13:05;11.83;68.41
69393;SHT31;56582;44.624;20.378;2024-01-06T08:15:30;11.97;68.34
69393;SHT31;56582;44.624;20.378;2024-01-06T08:17:57;11.90;68.34
69393;SHT31;56582;44.624;20.378;2024-01-06T08:20:23;11.96;68.62
69393;SHT31;56582;44.624;20.378;2024-01-06T08:22:51;11.93;68.38
69393;SHT31;56582;44.624;20.378;2024-01-06T08:25:17;11.89;68.26
69393;SHT31;56582;44.624;20.378;2024-01-06T08:27:46;11.92;68.35
69393;SHT31;56582;44.624;20.378;2024-01-06T08:30:12;12.05;68.43
69393;SHT31;56582;44.624;20.378;2024-01-06T08:32:37;11.97;68.34
69393;SHT31;56582;44.624;20.378;2024-01-06T08:35:03;12.03;68.58
69393;SHT31;56582;44.624;20.378;2024-01-06T08:37:29;12.07;67.96
69393;SHT31;56582;44.624;20.378;2024-01-06T08:39:55;12.07;68.47
69393;SHT31;56582;44.624;20.378;2024-01-06T08:42:21;11.97;68.74
69393;SHT31;56582;44.624;20.378;2024-01-06T08:44:46;11.95;68.45
69393;SHT31;56582;44.624;20.378;2024-01-06T08:47:12;11.99;68.93
69393;SHT31;56582;44.624;20.378;2024-01-06T08:49:38;11.97;68.72
69393;SHT31;56582;44.624;20.378;2024-01-06T08:52:04;11.96;67.87
69393;SHT31;56582;44.624;20.378;2024-01-06T08:54:32;11.89;68.46
69393;SHT31;56582;44.624;20.378;2024-01-06T08:56:58;11.92;68.63
69393;SHT31;56582;44.624;20.378;2024-01-06T08:59:23;11.78;69.66
69393;SHT31;56582;44.624;20.378;2024-01-06T09:01:49;11.78;68.11
69393;SHT31;56582;44.624;20.378;2024-01-06T09:04:17;11.81;68.42
69393;SHT31;56582;44.624;20.378;2024-01-06T09:06:43;11.86;68.38
69393;SHT31;56582;44.624;20.378;2024-01-06T09:09:08;11.75;68.51
69393;SHT31;56582;44.624;20.378;2024-01-06T09:11:35;11.78;68.94
69393;SHT31;56582;44.624;20.378;2024-01-06T09:14:00;11.75;68.26
69393;SHT31;56582;44.624;20.378;2024-01-06T09:16:26;11.76;68.99
69393;SHT31;56582;44.624;20.378;2024-01-06T09:18:52;11.74;69.03
69393;SHT31;56582;44.624;20.378;2024-01-06T09:21:18;11.78;68.20
69393;SHT31;56582;44.624;20.378;2024-01-06T09:23:43;11.82;67.88
69393;SHT31;56582;44.624;20.378;2024-01-06T09:26:09;11.92;68.12
69393;SHT31;56582;44.624;20.378;2024-01-06T09:28:34;11.86;68.65
69393;SHT31;56582;44.624;20.378;2024-01-06T09:31:00;11.90;68.80
69393;SHT31;56582;44.624;20.378;2024-01-06T09:33:25;11.85;69.03
69393;SHT31;56582;44.624;20.378;2024-01-06T09:35:51;11.82;68.73
69393;SHT31;56582;44.624;20.378;2024-01-06T09:38:16;11.86;68.94
69393;SHT31;56582;44.624;20.378;2024-01-06T09:40:45;11.90;68.62
69393;SHT31;56582;44.624;20.378;2024-01-06T09:43:11;12.05;67.92
69393;SHT31;56582;44.624;20.378;2024-01-06T09:45:40;12.16;70.90
69393;SHT31;56582;44.624;20.378;2024-01-06T09:48:16;12.20;68.13
69393;SHT31;56582;44.624;20.378;2024-01-06T09:50:43;12.12;69.07
69393;SHT31;56582;44.624;20.378;2024-01-06T09:53:12;12.12;68.48
69393;SHT31;56582;44.624;20.378;2024-01-06T09:55:38;12.09;68.26
69393;SHT31;56582;44.624;20.378;2024-01-06T09:58:04;12.13;68.74
69393;SHT31;56582;44.624;20.378;2024-01-06T10:00:31;12.29;68.41
69393;SHT31;56582;44.624;20.378;2024-01-06T10:02:57;12.20;68.79
69393;SHT31;56582;44.624;20.378;2024-01-06T10:05:23;12.17;68.78
69393;SHT31;56582;44.624;20.378;2024-01-06T10:07:49;12.12;68.84
69393;SHT31;56582;44.624;20.378;2024-01-06T10:10:15;12.09;68.91
69393;SHT31;56582;44.624;20.378;2024-01-06T10:12:41;12.13;68.68
69393;SHT31;56582;44.624;20.378;2024-01-06T10:15:09;12.24;68.92
69393;SHT31;56582;44.624;20.378;2024-01-06T10:17:41;12.12;68.58
69393;SHT31;56582;44.624;20.378;2024-01-06T10:20:11;12.24;68.94
69393;SHT31;56582;44.624;20.378;2024-01-06T10:22:38;12.17;69.05
69393;SHT31;56582;44.624;20.378;2024-01-06T10:25:06;12.10;69.48
69393;SHT31;56582;44.624;20.378;2024-01-06T10:27:37;12.13;68.72
69393;SHT31;56582;44.624;20.378;2024-01-06T10:30:03;12.07;69.35
69393;SHT31;56582;44.624;20.378;2024-01-06T10:32:32;12.17;69.39
69393;SHT31;56582;44.624;20.378;2024-01-06T10:34:58;12.24;68.36
69393;SHT31;56582;44.624;20.378;2024-01-06T10:37:26;12.29;68.52
69393;SHT31;56582;44.624;20.378;2024-01-06T10:42:35;12.41;68.77
69393;SHT31;56582;44.624;20.378;2024-01-06T10:45:02;12.43;68.67
69393;SHT31;56582;44.624;20.378;2024-01-06T10:47:29;12.43;68.66
69393;SHT31;56582;44.624;20.378;2024-01-06T10:49:59;12.45;69.00
69393;SHT31;56582;44.624;20.378;2024-01-06T10:52:26;12.55;67.84
69393;SHT31;56582;44.624;20.378;2024-01-06T10:54:54;12.50;68.41
69393;SHT31;56582;44.624;20.378;2024-01-06T10:57:20;12.47;68.95
69393;SHT31;56582;44.624;20.378;2024-01-06T10:59:49;12.51;68.70
69393;SHT31;56582;44.624;20.378;2024-01-06T11:02:18;12.51;68.83
69393;SHT31;56582;44.624;20.378;2024-01-06T11:04:47;12.48;68.51
69393;SHT31;56582;44.624;20.378;2024-01-06T11:07:15;12.48;68.59
69393;SHT31;56582;44.624;20.378;2024-01-06T11:09:58;12.51;69.40
69393;SHT31;56582;44.624;20.378;2024-01-06T11:12:24;12.62;68.95
69393;SHT31;56582;44.624;20.378;2024-01-06T11:14:51;12.61;68.53
69393;SHT31;56582;44.624;20.378;2024-01-06T11:17:49;12.72;67.98
69393;SHT31;56582;44.624;20.378;2024-01-06T11:20:26;12.64;69.12
69393;SHT31;56582;44.624;20.378;2024-01-06T11:22:52;12.57;69.11
69393;SHT31;56582;44.624;20.378;2024-01-06T11:25:20;12.68;68.68
69393;SHT31;56582;44.624;20.378;2024-01-06T11:27:48;12.69;68.71
69393;SHT31;56582;44.624;20.378;2024-01-06T11:30:22;12.65;68.83
69393;SHT31;56582;44.624;20.378;2024-01-06T11:32:50;12.74;68.20
69393;SHT31;56582;44.624;20.378;2024-01-06T11:35:18;12.61;69.10
69393;SHT31;56582;44.624;20.378;2024-01-06T11:42:47;12.62;68.95
69393;SHT31;56582;44.624;20.378;2024-01-06T11:45:14;12.54;69.00
69393;SHT31;56582;44.624;20.378;2024-01-06T11:47:40;12.58;69.52
69393;SHT31;56582;44.624;20.378;2024-01-06T11:50:10;12.55;69.66
69393;SHT31;56582;44.624;20.378;2024-01-06T11:52:36;12.51;69.93
69393;SHT31;56582;44.624;20.378;2024-01-06T11:55:01;12.45;69.53
69393;SHT31;56582;44.624;20.378;2024-01-06T11:57:28;12.48;70.22
69393;SHT31;56582;44.624;20.378;2024-01-06T11:59:53;12.40;70.30
69393;SHT31;56582;44.624;20.378;2024-01-06T12:02:19;12.47;70.46
69393;SHT31;56582;44.624;20.378;2024-01-06T12:04:51;12.43;70.79
69393;SHT31;56582;44.624;20.378;2024-01-06T12:07:17;12.58;69.82
69393;SHT31;56582;44.624;20.378;2024-01-06T12:09:43;12.60;70.46
69393;SHT31;56582;44.624;20.378;2024-01-06T12:12:08;12.53;70.68
69393;SHT31;56582;44.624;20.378;2024-01-06T12:14:40;12.67;70.12
69393;SHT31;56582;44.624;20.378;2024-01-06T12:17:09;12.74;69.09
69393;SHT31;56582;44.624;20.378;2024-01-06T12:19:35;12.75;69.78
69393;SHT31;56582;44.624;20.378;2024-01-06T12:22:01;12.68;69.73
69393;SHT31;56582;44.624;20.378;2024-01-06T12:24:28;12.72;69.99
69393;SHT31;56582;44.624;20.378;2024-01-06T12:26:59;12.74;69.47
69393;SHT31;56582;44.624;20.378;2024-01-06T12:29:28;12.78;69.60
69393;SHT31;56582;44.624;20.378;2024-01-06T12:31:59;12.82;69.76
69393;SHT31;56582;44.624;20.378;2024-01-06T12:34:25;12.92;69.25
69393;SHT31;56582;44.624;20.378;2024-01-06T12:36:53;12.93;69.64
69393;SHT31;56582;44.624;20.378;2024-01-06T12:39:20;12.85;70.05
69393;SHT31;56582;44.624;20.378;2024-01-06T12:41:45;12.88;70.03
69393;SHT31;56582;44.624;20.378;2024-01-06T12:44:11;12.85;70.42
69393;SHT31;56582;44.624;20.378;2024-01-06T12:46:37;12.84;69.96
69393;SHT31;56582;44.624;20.378;2024-01-06T12:49:03;12.82;70.72
69393;SHT31;56582;44.624;20.378;2024-01-06T12:51:29;12.92;70.39
69393;SHT31;56582;44.624;20.378;2024-01-06T12:53:54;12.89;70.35
69393;SHT31;56582;44.624;20.378;2024-01-06T12:56:20;12.93;69.67
69393;SHT31;56582;44.624;20.378;2024-01-06T12:58:46;12.98;70.01
69393;SHT31;56582;44.624;20.378;2024-01-06T13:01:11;13.05;69.48
69393;SHT31;56582;44.624;20.378;2024-01-06T13:03:37;13.09;69.34
69393;SHT31;56582;44.624;20.378;2024-01-06T13:06:03;12.98;69.53
69393;SHT31;56582;44.624;20.378;2024-01-06T13:08:29;13.13;69.49
69393;SHT31;56582;44.624;20.378;2024-01-06T13:10:56;13.05;69.32
69393;SHT31;56582;44.624;20.378;2024-01-06T13:13:21;13.03;69.75
69393;SHT31;56582;44.624;20.378;2024-01-06T13:15:47;13.03;69.67
69393;SHT31;56582;44.624;20.378;2024-01-06T13:18:13;13.02;70.57
69393;SHT31;56582;44.624;20.378;2024-01-06T13:20:39;12.98;70.20
69393;SHT31;56582;44.624;20.378;2024-01-06T13:23:07;12.99;70.08
69393;SHT31;56582;44.624;20.378;2024-01-06T13:25:33;13.03;70.71
69393;SHT31;56582;44.624;20.378;2024-01-06T13:27:59;12.99;69.85
69393;SHT31;56582;44.624;20.378;2024-01-06T13:30:25;12.91;71.41
69393;SHT31;56582;44.624;20.378;2024-01-06T13:32:53;12.98;70.91
69393;SHT31;56582;44.624;20.378;2024-01-06T13:35:22;12.96;71.25
69393;SHT31;56582;44.624;20.378;2024-01-06T13:37:53;12.80;71.61
69393;SHT31;56582;44.624;20.378;2024-01-06T13:40:19;12.87;70.68
69393;SHT31;56582;44.624;20.378;2024-01-06T13:42:51;12.81;71.34
69393;SHT31;56582;44.624;20.378;2024-01-06T13:45:18;12.82;71.13
69393;SHT31;56582;44.624;20.378;2024-01-06T13:47:44;12.78;70.81
69393;SHT31;56582;44.624;20.378;2024-01-06T13:50:12;12.72;70.56
69393;SHT31;56582;44.624;20.378;2024-01-06T13:52:38;12.71;70.79
69393;SHT31;56582;44.624;20.378;2024-01-06T13:55:04;12.62;71.62
69393;SHT31;56582;44.624;20.378;2024-01-06T13:57:30;12.60;71.06
69393;SHT31;56582;44.624;20.378;2024-01-06T13:59:56;12.71;71.08
69393;SHT31;56582;44.624;20.378;2024-01-06T14:02:23;12.68;70.89
69393;SHT31;56582;44.624;20.378;2024-01-06T14:04:49;12.78;70.58
69393;SHT31;56582;44.624;20.378;2024-01-06T14:07:14;12.61;71.67
69393;SHT31;56582;44.624;20.378;2024-01-06T14:09:44;12.62;71.95
69393;SHT31;56582;44.624;20.378;2024-01-06T14:12:10;12.71;71.79
69393;SHT31;56582;44.624;20.378;2024-01-06T14:14:36;12.69;71.31
69393;SHT31;56582;44.624;20.378;2024-01-06T14:17:01;12.71;71.10
69393;SHT31;56582;44.624;20.378;2024-01-06T14:19:27;12.77;70.80
69393;SHT31;56582;44.624;20.378;2024-01-06T14:21:53;12.71;70.83
69393;SHT31;56582;44.624;20.378;2024-01-06T14:24:19;12.68;70.72
69393;SHT31;56582;44.624;20.378;2024-01-06T14:26:49;12.65;71.22
69393;SHT31;56582;44.624;20.378;2024-01-06T14:29:15;12.60;71.91
69393;SHT31;56582;44.624;20.378;2024-01-06T14:31:45;12.61;73.25
69393;SHT31;56582;44.624;20.378;2024-01-06T14:34:10;12.61;71.58
69393;SHT31;56582;44.624;20.378;2024-01-06T14:36:36;12.68;71.07
69393;SHT31;56582;44.624;20.378;2024-01-06T14:39:01;12.67;72.17
69393;SHT31;56582;44.624;20.378;2024-01-06T14:41:29;12.62;72.11
69393;SHT31;56582;44.624;20.378;2024-01-06T14:44:02;12.55;72.38
69393;SHT31;56582;44.624;20.378;2024-01-06T14:46:27;12.74;71.68
69393;SHT31;56582;44.624;20.378;2024-01-06T14:48:53;12.72;72.48
69393;SHT31;56582;44.624;20.378;2024-01-06T14:51:20;12.61;72.90
69393;SHT31;56582;44.624;20.378;2024-01-06T14:53:45;12.57;72.94
69393;SHT31;56582;44.624;20.378;2024-01-06T14:56:11;12.51;73.27
69393;SHT31;56582;44.624;20.378;2024-01-06T14:58:36;12.29;74.14
69393;SHT31;56582;44.624;20.378;2024-01-06T15:01:02;12.20;73.97
69393;SHT31;56582;44.624;20.378;2024-01-06T15:03:29;12.13;74.63
69393;SHT31;56582;44.624;20.378;2024-01-06T15:05:54;12.16;74.52
69393;SHT31;56582;44.624;20.378;2024-01-06T15:08:20;12.20;74.17
69393;SHT31;56582;44.624;20.378;2024-01-06T15:10:45;12.23;73.71
69393;SHT31;56582;44.624;20.378;2024-01-06T15:13:11;12.36;73.17
69393;SHT31;56582;44.624;20.378;2024-01-06T15:15:36;12.32;73.41
69393;SHT31;56582;44.624;20.378;2024-01-06T15:18:02;12.34;72.75